createdAt,value
2023-06-04T00:01:19.533Z,31.64
2023-06-04T00:04:23.494Z,31.84
2023-06-04T00:07:25.816Z,31.83
2023-06-04T00:10:27.975Z,31.98
2023-06-04T00:13:30.342Z,31.76
2023-06-04T00:16:32.978Z,32.03
2023-06-04T00:19:35.167Z,32.33
2023-06-04T00:22:37.874Z,32.06
2023-06-04T00:25:41.594Z,32.26
2023-06-04T00:28:43.778Z,32.47
2023-06-04T00:31:46.173Z,32.35
2023-06-04T00:34:52.751Z,32.29
2023-06-04T00:37:54.935Z,32.49
2023-06-04T00:40:57.174Z,32.68
2023-06-04T00:44:02.923Z,32.59
2023-06-04T00:47:05.439Z,32.81
2023-06-04T00:50:08.967Z,32.80
2023-06-04T00:53:11.904Z,33.06
2023-06-04T00:56:14.308Z,33.08
2023-06-04T00:59:17.688Z,33.18
2023-06-04T01:02:23.734Z,33.62
2023-06-04T01:05:43.425Z,33.67
2023-06-04T01:08:45.647Z,33.81
2023-06-04T01:11:47.825Z,34.09
2023-06-04T01:14:50.279Z,34.08
2023-06-04T01:17:58.510Z,34.41
2023-06-04T01:21:02.245Z,34.84
2023-06-04T01:24:08.016Z,34.79
2023-06-04T01:27:10.313Z,35.11
2023-06-04T01:30:13.295Z,35.26
2023-06-04T01:33:20.079Z,35.25
2023-06-04T01:36:22.357Z,35.30
2023-06-04T01:39:27.416Z,35.62
2023-06-04T01:42:29.609Z,35.98
2023-06-04T01:45:31.915Z,35.87
2023-06-04T01:48:35.036Z,35.90
2023-06-04T01:51:37.942Z,35.98
2023-06-04T01:54:41.860Z,36.05
2023-06-04T01:57:51.573Z,35.96
2023-06-04T02:01:01.299Z,35.97
2023-06-04T02:04:03.850Z,36.28
2023-06-04T02:07:08.023Z,36.01
2023-06-04T02:10:11.146Z,36.50
2023-06-04T02:13:13.624Z,36.30
2023-06-04T02:16:15.965Z,36.77
2023-06-04T02:19:19.950Z,36.80
2023-06-04T02:22:22.141Z,36.98
2023-06-04T02:25:24.664Z,37.05
2023-06-04T02:28:27.219Z,36.98
2023-06-04T02:31:29.408Z,37.18
2023-06-04T02:34:31.859Z,37.05
2023-06-04T02:37:34.062Z,37.17
2023-06-04T02:40:36.271Z,36.96
2023-06-04T02:43:38.576Z,36.85
2023-06-04T02:46:41.101Z,37.03
2023-06-04T02:49:43.380Z,37.16
2023-06-04T02:52:46.110Z,37.48
2023-06-04T02:55:48.375Z,37.11
2023-06-04T02:58:56.318Z,37.24
2023-06-04T03:01:58.522Z,37.57
2023-06-04T03:05:00.718Z,37.50
2023-06-04T03:08:03.965Z,37.52
2023-06-04T03:11:06.532Z,37.48
2023-06-04T03:14:08.937Z,37.49
2023-06-04T03:17:12.085Z,37.43
2023-06-04T03:20:14.358Z,37.31
2023-06-04T03:23:16.604Z,37.46
2023-06-04T03:26:18.998Z,36.96
2023-06-04T03:29:22.227Z,37.00
2023-06-04T03:32:25.928Z,36.52
2023-06-04T03:35:28.199Z,36.63
2023-06-04T03:38:30.709Z,36.53
2023-06-04T03:41:34.135Z,36.66
2023-06-04T03:44:36.412Z,36.40
2023-06-04T03:47:40.058Z,36.21
2023-06-04T03:50:43.673Z,36.26
2023-06-04T03:53:46.608Z,35.65
2023-06-04T03:56:48.892Z,35.45
2023-06-04T03:59:51.301Z,33.89
2023-06-04T04:02:53.702Z,32.16
2023-06-04T04:06:02.796Z,31.61
2023-06-04T04:09:06.784Z,31.30
2023-06-04T04:12:09.609Z,31.28
2023-06-04T04:15:12.143Z,31.43
2023-06-04T04:18:14.588Z,32.06
2023-06-04T04:21:17.802Z,32.46
2023-06-04T04:24:25.553Z,32.46
2023-06-04T04:27:31.452Z,32.20
2023-06-04T04:30:37.799Z,32.59
2023-06-04T04:33:41.624Z,32.39
2023-06-04T04:36:52.974Z,32.05
2023-06-04T04:39:56.269Z,31.74
2023-06-04T04:43:00.539Z,31.94
2023-06-04T04:46:03.624Z,31.77
2023-06-04T04:49:07.063Z,31.71
2023-06-04T04:52:09.565Z,31.76
2023-06-04T04:55:14.048Z,31.64
2023-06-04T04:58:18.348Z,31.31
2023-06-04T05:01:21.503Z,31.30
2023-06-04T05:04:23.841Z,31.56
2023-06-04T05:07:27.158Z,31.75
2023-06-04T05:10:30.371Z,31.50
2023-06-04T05:13:35.184Z,31.16
2023-06-04T05:16:43.558Z,31.18
2023-06-04T05:19:47.148Z,31.52
2023-06-04T05:22:49.517Z,31.41
2023-06-04T05:25:53.335Z,30.97
2023-06-04T05:28:59.122Z,30.82
2023-06-04T05:32:04.111Z,31.02
2023-06-04T05:35:08.208Z,30.90
2023-06-04T05:38:10.609Z,31.18
2023-06-04T05:41:13.139Z,30.94
2023-06-04T05:44:16.562Z,31.28
2023-06-04T05:47:19.401Z,31.10
2023-06-04T05:50:22.048Z,30.95
2023-06-04T05:53:24.341Z,31.11
2023-06-04T05:56:27.791Z,31.17
2023-06-04T05:59:31.626Z,30.91
2023-06-04T06:02:33.896Z,31.17
2023-06-04T06:05:36.396Z,31.35
2023-06-04T06:08:38.683Z,31.25
2023-06-04T06:11:41.131Z,30.78
2023-06-04T06:14:43.510Z,30.79
2023-06-04T06:17:45.950Z,30.69
2023-06-04T06:20:48.570Z,30.54
2023-06-04T06:23:50.877Z,29.78
2023-06-04T06:26:53.334Z,30.26
2023-06-04T06:29:56.679Z,29.74
2023-06-04T06:32:59.029Z,29.91
2023-06-04T06:36:01.329Z,29.74
2023-06-04T06:39:03.723Z,29.81
2023-06-04T06:42:06.004Z,29.42
2023-06-04T06:45:13.340Z,29.94
2023-06-04T06:48:15.593Z,29.86
2023-06-04T06:51:17.996Z,29.76
2023-06-04T06:54:22.747Z,29.97
2023-06-04T06:57:25.265Z,29.85
2023-06-04T07:00:29.158Z,30.21
2023-06-04T07:03:32.323Z,30.04
2023-06-04T07:06:35.350Z,29.73
2023-06-04T07:09:37.546Z,30.03
2023-06-04T07:12:42.827Z,29.49
2023-06-04T07:15:45.946Z,29.12
2023-06-04T07:18:51.201Z,29.61
2023-06-04T07:21:55.308Z,29.47
2023-06-04T07:24:57.561Z,29.25
2023-06-04T07:27:59.803Z,29.67
2023-06-04T07:31:02.005Z,29.46
2023-06-04T07:34:04.247Z,29.29
2023-06-04T07:37:06.538Z,29.61
2023-06-04T07:40:09.241Z,29.55
2023-06-04T07:43:11.412Z,29.51
2023-06-04T07:46:13.681Z,30.02
2023-06-04T07:49:16.259Z,29.85
2023-06-04T07:52:18.430Z,30.09
2023-06-04T07:55:21.121Z,29.22
2023-06-04T07:58:23.450Z,28.94
2023-06-04T08:01:25.677Z,29.20
2023-06-04T08:04:28.097Z,29.17
2023-06-04T08:07:30.979Z,29.04
2023-06-04T08:10:33.190Z,28.86
2023-06-04T08:13:35.408Z,28.33
2023-06-04T08:16:37.623Z,27.91
2023-06-04T08:19:39.843Z,27.95
2023-06-04T08:22:42.072Z,28.11
2023-06-04T08:25:44.342Z,27.78
2023-06-04T08:28:50.227Z,27.58
2023-06-04T08:31:52.591Z,28.33
2023-06-04T08:34:55.748Z,27.81
2023-06-04T08:37:58.508Z,25.97
2023-06-04T08:41:11.329Z,26.07
2023-06-04T08:44:13.650Z,26.26
2023-06-04T08:47:16.963Z,25.85
2023-06-04T08:50:24.017Z,25.70
2023-06-04T08:53:26.563Z,25.68
2023-06-04T08:56:33.853Z,25.25
2023-06-04T08:59:36.855Z,25.36
2023-06-04T09:02:39.295Z,24.97
2023-06-04T09:05:43.344Z,24.96
2023-06-04T09:08:53.783Z,25.13
2023-06-04T09:12:02.805Z,24.40
2023-06-04T09:15:05.197Z,24.19
2023-06-04T09:18:07.544Z,24.65
2023-06-04T09:21:12.774Z,24.59
2023-06-04T09:24:15.011Z,25.36
2023-06-04T09:27:18.997Z,25.41
2023-06-04T09:30:21.270Z,25.16
2023-06-04T09:33:24.616Z,25.65
2023-06-04T09:36:31.662Z,25.16
2023-06-04T09:39:33.919Z,25.35
2023-06-04T09:42:56.229Z,25.63
2023-06-04T09:46:10.246Z,26.00
2023-06-04T09:49:12.518Z,25.44
2023-06-04T09:52:15.156Z,25.65
2023-06-04T09:55:20.834Z,25.79
2023-06-04T09:58:24.311Z,25.53
2023-06-04T10:01:28.280Z,25.72
2023-06-04T10:04:30.620Z,25.78
2023-06-04T10:07:35.522Z,26.08
2023-06-04T10:10:39.252Z,25.62
2023-06-04T10:13:56.230Z,25.80
2023-06-04T10:16:59.758Z,25.98
2023-06-04T10:20:05.690Z,26.47
2023-06-04T10:23:09.014Z,26.54
2023-06-04T10:26:11.297Z,26.01
2023-06-04T10:29:13.970Z,26.19
2023-06-04T10:32:16.641Z,26.11
2023-06-04T10:35:19.014Z,26.63
2023-06-04T10:38:22.875Z,26.76
2023-06-04T10:41:26.070Z,26.47
2023-06-04T10:44:28.552Z,26.71
2023-06-04T10:47:31.828Z,26.41
2023-06-04T10:50:35.156Z,26.85
2023-06-04T10:53:38.235Z,27.25
2023-06-04T10:56:40.443Z,26.47
2023-06-04T10:59:42.717Z,26.79
2023-06-04T11:02:56.423Z,26.42
2023-06-04T11:05:58.755Z,26.58
2023-06-04T11:09:04.904Z,26.59
2023-06-04T11:12:07.682Z,26.31
2023-06-04T11:15:10.635Z,26.24
2023-06-04T11:18:20.438Z,25.90
2023-06-04T11:21:22.918Z,25.64
2023-06-04T11:24:25.149Z,25.78
2023-06-04T11:27:36.225Z,25.76
2023-06-04T11:30:40.966Z,25.59
2023-06-04T11:33:47.386Z,25.71
2023-06-04T11:36:50.829Z,26.13
2023-06-04T11:39:53.066Z,26.53
2023-06-04T11:42:55.945Z,26.61
2023-06-04T11:45:58.930Z,26.84
2023-06-04T11:49:01.371Z,25.81
2023-06-04T11:52:03.817Z,26.27
2023-06-04T11:55:09.309Z,26.44
2023-06-04T11:58:11.648Z,25.53
2023-06-04T12:01:14.453Z,26.50
2023-06-04T12:04:18.076Z,27.42
2023-06-04T12:07:22.722Z,28.00
2023-06-04T12:10:25.400Z,28.60
2023-06-04T12:13:27.684Z,27.62
2023-06-04T12:16:30.017Z,27.87
2023-06-04T12:19:32.648Z,28.23
2023-06-04T12:22:46.270Z,28.10
2023-06-04T12:25:51.985Z,28.96
2023-06-04T12:29:03.445Z,28.29
2023-06-04T12:32:12.533Z,28.10
2023-06-04T12:35:16.807Z,28.82
2023-06-04T12:38:19.265Z,29.20
2023-06-04T12:41:21.515Z,29.50
2023-06-04T12:44:23.784Z,28.79
2023-06-04T12:47:26.204Z,28.44
2023-06-04T12:50:28.375Z,29.26
2023-06-04T12:53:31.799Z,27.74
2023-06-04T12:56:34.017Z,28.78
2023-06-04T12:59:36.418Z,27.50
2023-06-04T13:02:38.735Z,27.23
2023-06-04T13:05:41.028Z,28.82
2023-06-04T13:08:43.939Z,29.79
2023-06-04T13:11:46.438Z,29.38
2023-06-04T13:14:48.693Z,29.08
2023-06-04T13:17:50.927Z,28.91
2023-06-04T13:20:53.173Z,28.57
2023-06-04T13:23:57.151Z,27.51
2023-06-04T13:26:59.355Z,27.75
2023-06-04T13:30:01.583Z,27.53
2023-06-04T13:33:04.504Z,27.11
2023-06-04T13:36:07.172Z,26.84
2023-06-04T13:39:09.341Z,27.20
2023-06-04T13:42:11.564Z,27.12
2023-06-04T13:45:14.186Z,26.56
2023-06-04T13:48:16.645Z,25.81
2023-06-04T13:51:18.880Z,25.71
2023-06-04T13:54:21.081Z,25.92
2023-06-04T13:57:23.307Z,26.27
2023-06-04T14:00:25.598Z,25.60
2023-06-04T14:03:27.936Z,25.81
2023-06-04T14:06:30.221Z,25.63
2023-06-04T14:09:32.369Z,25.69
2023-06-04T14:12:34.558Z,25.42
2023-06-04T14:15:37.073Z,26.26
2023-06-04T14:18:39.264Z,25.81
2023-06-04T14:21:42.037Z,25.91
2023-06-04T14:24:44.378Z,25.95
2023-06-04T14:27:46.580Z,26.28
2023-06-04T14:30:48.923Z,26.09
2023-06-04T14:33:51.133Z,26.63
2023-06-04T14:36:53.366Z,26.59
2023-06-04T14:39:55.801Z,26.50
2023-06-04T14:42:58.613Z,26.41
2023-06-04T14:46:00.883Z,26.82
2023-06-04T14:49:03.289Z,27.45
2023-06-04T14:52:05.564Z,27.27
2023-06-04T14:55:08.068Z,27.43
2023-06-04T14:58:10.285Z,27.77
2023-06-04T15:01:12.589Z,27.70
2023-06-04T15:04:15.365Z,27.81
2023-06-04T15:07:17.605Z,27.85
2023-06-04T15:10:19.873Z,28.04
2023-06-04T15:13:22.077Z,28.09
2023-06-04T15:16:24.380Z,28.13
2023-06-04T15:19:26.666Z,27.86
2023-06-04T15:22:28.952Z,28.54
2023-06-04T15:25:31.239Z,28.36
2023-06-04T15:28:33.456Z,28.33
2023-06-04T15:31:35.800Z,28.49
2023-06-04T15:34:38.066Z,28.43
2023-06-04T15:37:40.377Z,28.85
2023-06-04T15:40:42.557Z,29.27
2023-06-04T15:43:44.813Z,29.47
2023-06-04T15:46:47.021Z,30.00
2023-06-04T15:49:49.229Z,30.05
2023-06-04T15:52:51.410Z,30.94
2023-06-04T15:55:53.582Z,30.86
2023-06-04T15:58:55.802Z,31.17
2023-06-04T16:01:58.120Z,31.48
2023-06-04T16:05:00.515Z,31.69
2023-06-04T16:08:02.752Z,32.00
2023-06-04T16:11:05.121Z,31.95
2023-06-04T16:14:07.389Z,32.55
2023-06-04T16:17:09.626Z,32.92
2023-06-04T16:20:11.950Z,32.90
2023-06-04T16:23:14.396Z,32.94
2023-06-04T16:26:16.621Z,33.06
2023-06-04T16:29:18.835Z,33.11
2023-06-04T16:32:21.204Z,32.91
2023-06-04T16:35:23.669Z,32.90
2023-06-04T16:38:25.880Z,32.95
2023-06-04T16:41:28.134Z,32.83
2023-06-04T16:44:30.379Z,32.92
2023-06-04T16:47:33.642Z,32.85
2023-06-04T16:50:35.975Z,33.04
2023-06-04T16:53:38.165Z,33.02
2023-06-04T16:56:41.875Z,32.87
2023-06-04T16:59:47.580Z,33.13
2023-06-04T17:02:49.770Z,33.04
2023-06-04T17:05:52.046Z,32.90
2023-06-04T17:08:54.334Z,33.35
2023-06-04T17:11:56.626Z,33.09
2023-06-04T17:14:58.920Z,33.17
2023-06-04T17:18:01.976Z,33.15
2023-06-04T17:21:04.406Z,33.81
2023-06-04T17:24:06.815Z,33.38
2023-06-04T17:27:09.357Z,33.79
2023-06-04T17:30:12.011Z,33.53
2023-06-04T17:33:14.305Z,33.29
2023-06-04T17:36:16.477Z,33.35
2023-06-04T17:39:18.645Z,33.37
2023-06-04T17:42:20.824Z,33.50
2023-06-04T17:45:23.075Z,33.42
2023-06-04T17:48:25.408Z,33.61
2023-06-04T17:51:27.564Z,33.55
2023-06-04T17:54:29.756Z,33.56
2023-06-04T17:57:31.958Z,33.54
2023-06-04T18:00:34.530Z,33.62
2023-06-04T18:03:39.284Z,33.93
2023-06-04T18:06:41.452Z,33.55
2023-06-04T18:09:44.124Z,34.00
2023-06-04T18:12:46.704Z,34.26
2023-06-04T18:15:49.443Z,34.29
2023-06-04T18:18:51.626Z,34.42
2023-06-04T18:21:54.093Z,34.60
2023-06-04T18:24:56.308Z,34.71
2023-06-04T18:27:58.492Z,35.03
2023-06-04T18:31:00.947Z,35.05
2023-06-04T18:34:03.442Z,35.45
2023-06-04T18:37:05.995Z,35.67
2023-06-04T18:40:13.516Z,35.93
2023-06-04T18:43:16.343Z,36.33
2023-06-04T18:46:19.257Z,36.42
2023-06-04T18:49:22.974Z,36.38
2023-06-04T18:52:25.622Z,36.58
2023-06-04T18:55:27.799Z,36.78
2023-06-04T18:58:30.024Z,37.07
2023-06-04T19:01:32.260Z,37.42
2023-06-04T19:04:37.390Z,36.94
2023-06-04T19:07:40.852Z,37.08
2023-06-04T19:10:46.461Z,37.50
2023-06-04T19:13:48.822Z,37.63
2023-06-04T19:16:51.938Z,37.57
2023-06-04T19:19:54.555Z,37.86
2023-06-04T19:22:56.734Z,37.88
2023-06-04T19:25:58.902Z,37.80
2023-06-04T19:29:01.389Z,37.79
2023-06-04T19:32:03.733Z,38.24
2023-06-04T19:35:06.810Z,38.12
2023-06-04T19:38:09.071Z,37.89
2023-06-04T19:41:11.265Z,38.25
2023-06-04T19:44:13.481Z,38.32
2023-06-04T19:47:15.784Z,38.51
2023-06-04T19:50:18.525Z,38.41
2023-06-04T19:53:20.699Z,38.50
2023-06-04T19:56:22.901Z,38.90
2023-06-04T19:59:25.054Z,38.55
2023-06-04T20:02:27.251Z,38.64
2023-06-04T20:05:30.038Z,38.61
2023-06-04T20:08:32.758Z,38.76
2023-06-04T20:11:35.975Z,38.91
2023-06-04T20:14:38.257Z,38.93
2023-06-04T20:17:40.499Z,38.73
2023-06-04T20:20:42.784Z,38.98
2023-06-04T20:23:46.723Z,38.56
2023-06-04T20:26:49.124Z,38.66
2023-06-04T20:29:51.814Z,38.50
2023-06-04T20:32:56.743Z,38.82
2023-06-04T20:35:59.262Z,38.92
2023-06-04T20:39:01.601Z,38.97
2023-06-04T20:42:03.944Z,38.88
2023-06-04T20:45:06.803Z,39.11
2023-06-04T20:48:09.089Z,39.13
2023-06-04T20:51:11.450Z,38.84
2023-06-04T20:54:14.195Z,39.05
2023-06-04T20:57:16.402Z,39.22
2023-06-04T21:00:18.728Z,39.07
2023-06-04T21:03:21.511Z,39.11
2023-06-04T21:06:23.799Z,39.31
2023-06-04T21:09:26.084Z,39.34
2023-06-04T21:12:28.258Z,38.81
2023-06-04T21:15:30.479Z,39.11
2023-06-04T21:18:32.692Z,39.02
2023-06-04T21:21:34.874Z,38.84
2023-06-04T21:24:37.111Z,39.22
2023-06-04T21:27:39.507Z,39.49
2023-06-04T21:30:41.974Z,39.30
2023-06-04T21:33:44.205Z,38.89
2023-06-04T21:36:46.405Z,38.80
2023-06-04T21:39:48.572Z,38.93
2023-06-04T21:42:51.458Z,39.15
2023-06-04T21:45:54.294Z,38.81
2023-06-04T21:48:56.481Z,38.74
2023-06-04T21:51:58.631Z,38.94
2023-06-04T21:55:00.866Z,38.80
2023-06-04T21:58:04.550Z,38.69
2023-06-04T22:01:07.078Z,38.77
2023-06-04T22:04:09.724Z,38.60
2023-06-04T22:07:11.962Z,38.75
2023-06-04T22:10:14.232Z,39.15
2023-06-04T22:13:16.598Z,38.72
2023-06-04T22:16:18.978Z,38.81
2023-06-04T22:19:21.253Z,38.89
2023-06-04T22:22:23.489Z,38.63
2023-06-04T22:25:25.909Z,38.73
2023-06-04T22:28:28.150Z,38.98
2023-06-04T22:31:30.708Z,38.56
2023-06-04T22:34:33.061Z,38.96
2023-06-04T22:37:35.473Z,39.03
2023-06-04T22:40:37.973Z,39.22
2023-06-04T22:43:40.148Z,38.93
2023-06-04T22:46:42.467Z,39.20
2023-06-04T22:49:44.710Z,39.08
2023-06-04T22:52:46.967Z,38.84
2023-06-04T22:55:49.286Z,39.25
2023-06-04T22:58:51.651Z,38.82
2023-06-04T23:01:54.794Z,39.40
2023-06-04T23:04:57.156Z,39.16
2023-06-04T23:07:59.333Z,39.56
2023-06-04T23:11:01.605Z,39.15
2023-06-04T23:14:03.861Z,39.70
2023-06-04T23:17:06.067Z,39.26
2023-06-04T23:20:10.094Z,39.38
2023-06-04T23:23:12.299Z,39.90
2023-06-04T23:26:14.477Z,39.80
2023-06-04T23:29:16.677Z,39.41
2023-06-04T23:32:19.080Z,39.19
2023-06-04T23:35:21.588Z,39.22
2023-06-04T23:38:23.938Z,39.58
2023-06-04T23:41:26.661Z,39.80
2023-06-04T23:44:29.129Z,39.56
2023-06-04T23:47:31.482Z,39.58
2023-06-04T23:50:33.771Z,39.67
2023-06-04T23:53:36.404Z,39.77
2023-06-04T23:56:41.331Z,39.76
2023-06-04T23:59:44.253Z,39.79
